PDT,Max TemperatureF,Mean TemperatureF,Min TemperatureF,Max Dew PointF,MeanDew PointF,Min DewpointF,Max Humidity, Mean Humidity, Min Humidity, Max Sea Level PressureIn, Mean Sea Level PressureIn, Min Sea Level PressureIn, Max VisibilityMiles, Mean VisibilityMiles, Min VisibilityMiles, Max Wind SpeedMPH, Mean Wind SpeedMPH, Max Gust SpeedMPH,PrecipitationIn, CloudCover, Events, WindDirDegrees
2012-9-1,73,58,42,50,48,43,100,74,41,30.18,30.13,30.04,10,10,5,7,2,,0.00,1,,271
2012-9-2,73,58,42,55,48,41,100,75,38,30.23,30.18,30.14,10,10,5,9,4,,0.00,1,Rain,279
2012-9-3,75,62,48,55,52,48,100,76,41,30.20,30.16,30.12,10,9,0,14,3,21,0.00,3,Fog,4
2012-9-4,78,64,50,55,52,48,100,73,36,30.22,30.17,30.10,10,7,0,14,3,21,0.00,2,Fog,21
2012-9-5,82,65,48,57,53,48,100,69,32,30.11,30.02,29.92,10,8,2,10,3,,0.00,0,,359
2012-9-6,82,66,50,57,52,50,100,67,32,30.05,30.01,29.97,10,8,0,13,3,17,0.00,1,Fog-Rain,22
2012-9-7,89,68,48,55,51,46,100,64,22,30.14,30.08,30.02,10,9,4,9,2,,0.00,0,,16
2012-9-8,77,62,48,59,53,48,100,76,47,30.05,30.02,29.97,10,9,1,9,2,16,0.00,1,,285
2012-9-9,64,60,57,55,52,50,94,77,59,30.06,30.03,30.01,10,9,4,13,5,17,0.00,8,Rain,194
2012-9-10,66,56,44,55,47,41,94,72,42,30.25,30.16,30.02,10,8,3,12,3,20,0.03,3,Rain,278
2012-9-11,68,52,37,46,40,36,100,68,34,30.33,30.29,30.25,10,7,0,12,4,21,0.00,2,Fog,11
2012-9-12,73,57,41,46,43,39,93,60,38,30.34,30.27,30.20,10,8,5,15,6,21,0.00,2,,12
2012-9-13,82,62,41,52,46,39,100,66,26,30.22,30.14,30.04,10,8,0,8,3,,0.00,2,Fog,11
2012-9-14,82,63,44,54,49,43,100,70,28,30.10,30.07,30.01,10,8,3,7,1,,0.00,1,,359
2012-9-15,77,62,46,54,47,34,100,71,25,30.20,30.16,30.08,10,8,4,9,1,,0.00,3,,350
2012-9-16,75,58,41,54,48,41,100,75,44,30.24,30.18,30.11,10,7,0,12,2,17,0.00,3,Fog,12
2012-9-17,82,63,44,55,51,45,100,74,34,30.13,30.07,30.00,10,8,1,8,1,,0.00,3,,10
2012-9-18,86,66,46,61,52,46,100,70,29,30.13,30.05,30.01,10,8,2,8,2,,0.00,1,,6
2012-9-19,75,64,51,55,54,52,100,81,47,30.17,30.13,30.06,10,8,4,9,2,,0.00,2,,332
2012-9-20,66,58,51,55,53,50,100,89,68,30.14,30.11,30.08,10,7,1,7,1,,0.00,4,,226
2012-9-21,62,60,57,55,54,52,94,83,68,30.17,30.15,30.14,10,10,4,6,1,,0.00,1,,215
2012-9-22,69,58,48,54,50,46,100,72,43,30.18,30.15,30.12,10,9,5,8,2,,0.00,2,Rain,340
2012-9-23,69,55,41,54,48,41,100,81,46,30.18,30.15,30.12,10,7,0,12,1,17,0.00,1,Fog,10
2012-9-24,73,58,44,55,51,45,100,83,46,30.17,30.14,30.10,10,7,0,7,1,,0.00,2,Fog,306
2012-9-25,64,55,46,55,50,45,100,82,59,30.18,30.14,30.13,10,8,2,6,2,,0.00,2,,287
2012-9-26,69,56,44,52,47,43,100,82,46,30.15,30.10,30.05,10,6,0,10,2,,0.00,2,Fog,11
2012-9-27,75,58,42,54,49,43,100,79,41,30.08,30.03,29.95,10,6,0,9,1,,0.00,1,Fog,10
2012-9-28,80,66,53,57,53,46,94,73,34,30.06,29.99,29.95,10,9,4,8,1,,0.00,0,Rain,284
2012-9-29,68,57,46,59,50,45,94,74,52,30.31,30.20,30.07,10,9,5,8,3,,0.00,0,,301
2012-9-30,71,56,41,48,43,37,100,69,31,30.41,30.36,30.31,10,8,1,15,3,21,0.00,0,,13